createdAt,value
2018-12-13T00:01:43.176Z,57.00
2018-12-13T00:04:17.840Z,54.20
2018-12-13T00:06:52.869Z,57.00
2018-12-13T00:09:21.233Z,57.60
2018-12-13T00:11:50.589Z,56.80
2018-12-13T00:14:18.964Z,58.20
2018-12-13T00:16:47.605Z,56.40
2018-12-13T00:19:16.195Z,56.60
2018-12-13T00:21:44.580Z,56.00
2018-12-13T00:24:12.982Z,60.20
2018-12-13T00:26:41.308Z,60.80
2018-12-13T00:29:15.871Z,57.40
2018-12-13T00:31:51.335Z,55.40
2018-12-13T00:34:25.225Z,58.80
2018-12-13T00:37:03.477Z,60.00
2018-12-13T00:39:35.442Z,58.80
2018-12-13T00:42:10.517Z,56.60
2018-12-13T00:44:44.330Z,57.20
2018-12-13T00:47:19.057Z,61.80
2018-12-13T00:49:53.688Z,60.60
2018-12-13T00:52:28.508Z,60.40
2018-12-13T00:55:03.069Z,59.20
2018-12-13T00:57:38.399Z,59.40
2018-12-13T01:00:12.714Z,58.20
2018-12-13T01:02:54.016Z,57.60
2018-12-13T01:05:30.188Z,60.20
2018-12-13T01:07:58.595Z,60.80
2018-12-13T01:10:27.435Z,59.40
2018-12-13T01:12:57.164Z,54.20
2018-12-13T01:15:27.587Z,58.20
2018-12-13T01:17:56.036Z,55.80
2018-12-13T01:20:30.185Z,59.60
2018-12-13T01:23:01.613Z,58.00
2018-12-13T01:25:35.526Z,60.80
2018-12-13T01:28:10.772Z,60.20
2018-12-13T01:30:46.799Z,60.80
2018-12-13T01:33:22.608Z,59.00
2018-12-13T01:35:56.897Z,57.80
2018-12-13T01:38:31.026Z,61.40
2018-12-13T01:41:05.873Z,59.00
2018-12-13T01:43:37.818Z,56.80
2018-12-13T01:46:12.900Z,60.40
2018-12-13T01:50:51.321Z,82.00
2018-12-13T01:53:27.221Z,65.60
2018-12-13T01:56:01.435Z,60.60
2018-12-13T01:58:36.106Z,62.60
2018-12-13T02:01:10.917Z,59.60
2018-12-13T02:03:45.766Z,59.20
2018-12-13T02:06:19.807Z,58.00
2018-12-13T02:08:55.038Z,56.60
2018-12-13T02:11:29.181Z,57.40
2018-12-13T02:14:10.950Z,60.20
2018-12-13T02:16:45.758Z,58.80
2018-12-13T02:19:22.032Z,59.00
2018-12-13T02:21:56.333Z,58.00
2018-12-13T02:24:30.302Z,58.80
2018-12-13T02:26:59.085Z,57.80
2018-12-13T02:29:35.150Z,55.80
2018-12-13T02:32:08.933Z,57.00
2018-12-13T02:34:42.896Z,57.20
2018-12-13T02:37:15.993Z,57.00
2018-12-13T02:39:52.092Z,57.60
2018-12-13T02:42:26.875Z,57.80
2018-12-13T02:45:01.979Z,55.20
2018-12-13T02:47:36.419Z,56.40
2018-12-13T02:50:08.607Z,56.40
2018-12-13T02:52:43.778Z,55.20
2018-12-13T02:55:18.572Z,55.40
2018-12-13T02:57:55.103Z,53.40
2018-12-13T03:00:31.140Z,54.80
2018-12-13T03:03:05.501Z,53.20
2018-12-13T03:05:39.946Z,53.60
2018-12-13T03:08:13.795Z,55.80
2018-12-13T03:10:49.254Z,53.40
2018-12-13T03:13:21.566Z,54.20
2018-12-13T03:15:55.995Z,53.00
2018-12-13T03:18:24.456Z,55.80
2018-12-13T03:20:58.237Z,55.00
2018-12-13T03:23:32.540Z,53.60
2018-12-13T03:26:08.476Z,53.80
2018-12-13T03:28:42.450Z,54.20
2018-12-13T03:31:18.519Z,52.80
2018-12-13T03:33:52.970Z,54.80
2018-12-13T03:36:27.148Z,53.00
2018-12-13T03:39:01.351Z,54.20
2018-12-13T03:41:36.014Z,54.80
2018-12-13T03:44:10.423Z,54.20
2018-12-13T03:49:08.092Z,52.40
2018-12-13T03:51:42.350Z,52.80
2018-12-13T03:54:16.759Z,51.80
2018-12-13T03:56:52.008Z,52.00
2018-12-13T03:59:26.247Z,52.80
2018-12-13T04:02:00.628Z,54.40
2018-12-13T04:04:34.749Z,52.40
2018-12-13T04:07:09.240Z,53.80
2018-12-13T04:09:43.693Z,52.80
2018-12-13T04:12:18.203Z,52.40
2018-12-13T04:14:52.841Z,52.40
2018-12-13T04:17:27.012Z,52.40
2018-12-13T04:22:52.746Z,52.00
2018-12-13T04:25:27.441Z,54.40
2018-12-13T04:28:01.829Z,54.00
2018-12-13T04:30:36.204Z,53.40
2018-12-13T04:33:10.365Z,51.60
2018-12-13T04:35:44.764Z,56.60
2018-12-13T04:38:17.161Z,54.60
2018-12-13T04:40:51.790Z,56.60
2018-12-13T04:43:25.862Z,53.20
2018-12-13T04:46:01.055Z,54.80
2018-12-13T04:48:35.662Z,55.80
2018-12-13T04:51:08.101Z,56.80
2018-12-13T04:53:41.883Z,54.20
2018-12-13T04:56:16.529Z,54.80
2018-12-13T04:58:50.607Z,52.20
2018-12-13T05:01:25.212Z,54.60
2018-12-13T05:03:59.538Z,55.00
2018-12-13T05:06:34.026Z,52.20
2018-12-13T05:09:09.148Z,54.20
2018-12-13T05:11:43.966Z,53.40
2018-12-13T05:14:18.136Z,53.00
2018-12-13T05:16:52.904Z,53.40
2018-12-13T05:19:27.393Z,55.20
2018-12-13T05:22:01.750Z,54.20
2018-12-13T05:24:36.917Z,55.40
2018-12-13T05:27:11.363Z,53.00
2018-12-13T05:29:44.674Z,55.00
2018-12-13T05:32:20.091Z,52.80
2018-12-13T05:34:54.489Z,55.20
2018-12-13T05:37:29.482Z,54.40
2018-12-13T05:40:03.673Z,52.20
2018-12-13T05:42:36.785Z,53.00
2018-12-13T05:45:10.597Z,54.40
2018-12-13T05:47:44.785Z,53.40
2018-12-13T05:50:19.367Z,55.00
2018-12-13T05:52:53.139Z,57.80
2018-12-13T05:55:28.257Z,55.00
2018-12-13T05:58:03.296Z,57.20
2018-12-13T06:00:37.859Z,56.40
2018-12-13T06:03:14.368Z,53.20
2018-12-13T06:05:48.898Z,52.40
2018-12-13T06:08:23.658Z,52.60
2018-12-13T06:10:59.017Z,55.40
2018-12-13T06:13:34.227Z,53.40
2018-12-13T06:16:28.309Z,56.60
2018-12-13T06:34:18.479Z,51.80
2018-12-13T06:44:54.008Z,52.80
2018-12-13T06:47:29.981Z,52.40
2018-12-13T06:50:04.447Z,56.20
2018-12-13T06:52:50.680Z,54.80
2018-12-13T06:55:31.659Z,52.80
2018-12-13T06:58:20.233Z,51.60
2018-12-13T07:01:05.246Z,52.00
2018-12-13T07:03:40.047Z,53.20
2018-12-13T07:17:39.058Z,54.20
